Time;durP1;ratioP1;P1;durP2;ratioP2;P2;SDS_P1;SDS_P2;PMS_P1;PMS_P2;Temp;Humidity;BMP_temperature;BMP_pressure;BME280_temperature;BME280_humidity;BME280_pressure;Samples;Min_cycle;Max_cycle;Signal;HPM_P1;HPM_P2
2022/05/05 00:02:15;;;;;;;3.50;1.90;;;7.40;83.40;;;;;;5054587;28;20339;-55
2022/05/05 00:04:43;;;;;;;3.43;1.80;;;7.50;82.30;;;;;;5054433;28;20244;-58
2022/05/05 00:07:09;;;;;;;3.63;1.80;;;7.50;82.50;;;;;;5054559;28;20558;-57
2022/05/05 00:09:37;;;;;;;3.70;1.67;;;7.40;82.40;;;;;;5054683;28;20201;-56
2022/05/05 00:14:49;;;;;;;3.73;2.00;;;7.40;82.70;;;;;;5054416;28;20193;-57
2022/05/05 00:17:16;;;;;;;3.23;2.00;;;7.40;82.70;;;;;;5054320;28;20226;-56
2022/05/05 00:19:44;;;;;;;4.80;2.00;;;7.30;82.50;;;;;;5054530;28;20213;-57
2022/05/05 00:22:11;;;;;;;3.30;1.80;;;7.30;82.50;;;;;;5054340;28;20956;-57
2022/05/05 00:24:39;;;;;;;3.60;1.87;;;7.30;82.60;;;;;;5054479;28;20583;-57
2022/05/05 00:27:06;;;;;;;6.67;1.90;;;7.30;82.70;;;;;;5053955;28;20301;-59
2022/05/05 00:29:33;;;;;;;4.00;2.17;;;7.30;82.60;;;;;;5054370;28;20220;-58
2022/05/05 00:32:00;;;;;;;3.07;1.93;;;7.30;82.80;;;;;;5054133;28;20320;-57
2022/05/05 00:34:27;;;;;;;5.97;3.20;;;7.30;82.80;;;;;;5054252;28;20208;-57
2022/05/05 00:36:55;;;;;;;3.97;2.50;;;7.20;83.00;;;;;;5053890;28;20577;-57
2022/05/05 00:39:22;;;;;;;3.50;2.00;;;7.20;83.00;;;;;;5054270;28;20533;-58
2022/05/05 00:41:49;;;;;;;3.33;2.30;;;7.20;83.10;;;;;;5053978;28;20565;-56
2022/05/05 00:44:16;;;;;;;4.23;2.10;;;7.20;83.30;;;;;;5053631;28;20215;-57
2022/05/05 00:46:49;;;;;;;3.63;2.23;;;7.20;83.10;;;;;;5053790;28;20205;-57
2022/05/05 00:49:16;;;;;;;4.87;2.43;;;7.20;83.30;;;;;;5053627;28;20193;-56
2022/05/05 00:51:42;;;;;;;4.63;2.27;;;7.10;83.20;;;;;;5053788;28;20201;-57
2022/05/05 00:54:11;;;;;;;4.83;2.20;;;7.10;83.20;;;;;;5053334;28;20213;-53
2022/05/05 00:56:38;;;;;;;3.43;2.10;;;7.20;83.40;;;;;;5053676;28;20225;-56
2022/05/05 00:59:06;;;;;;;3.83;2.03;;;7.10;83.30;;;;;;5053539;28;20542;-57
2022/05/05 01:01:35;;;;;;;4.73;2.00;;;7.10;83.10;;;;;;5053652;28;20225;-57
2022/05/05 01:04:03;;;;;;;3.87;2.10;;;7.20;83.40;;;;;;5053014;28;20241;-57
2022/05/05 01:06:31;;;;;;;7.37;2.20;;;7.10;83.30;;;;;;5053540;28;20616;-55
2022/05/05 01:08:58;;;;;;;4.00;2.07;;;7.10;83.60;;;;;;5053822;28;20202;-56
2022/05/05 01:11:28;;;;;;;2.87;1.97;;;7.10;83.30;;;;;;5053437;28;20579;-56
2022/05/05 01:13:56;;;;;;;4.37;1.90;;;7.10;83.50;;;;;;5053355;28;20194;-57
2022/05/05 01:16:24;;;;;;;3.07;2.00;;;7.00;83.60;;;;;;5053380;28;20699;-57
2022/05/05 01:18:51;;;;;;;4.83;2.40;;;7.10;83.90;;;;;;5053304;28;20608;-55
2022/05/05 01:21:21;;;;;;;3.93;2.10;;;7.00;83.70;;;;;;5053218;28;20211;-58
2022/05/05 01:23:48;;;;;;;4.57;2.10;;;7.00;83.90;;;;;;5052789;28;20236;-56
2022/05/05 01:29:01;;;;;;;4.53;2.10;;;7.00;84.30;;;;;;5052854;28;20188;-58
2022/05/05 01:31:27;;;;;;;3.53;2.23;;;7.00;84.60;;;;;;5052686;28;20228;-59
2022/05/05 01:33:54;;;;;;;3.20;2.00;;;6.90;84.80;;;;;;5052986;28;20208;-57
2022/05/05 01:36:22;;;;;;;4.10;2.20;;;6.90;84.40;;;;;;5052894;28;20217;-56
2022/05/05 01:38:49;;;;;;;3.30;2.13;;;6.90;84.70;;;;;;5052828;28;20659;-57
2022/05/05 01:41:16;;;;;;;6.57;2.33;;;6.90;84.90;;;;;;5052911;28;20212;-58
2022/05/05 01:43:45;;;;;;;5.00;2.10;;;6.90;84.90;;;;;;5052460;28;20213;-58
2022/05/05 01:46:13;;;;;;;4.40;1.93;;;6.90;85.10;;;;;;5052752;28;20668;-58
2022/05/05 01:48:41;;;;;;;4.83;2.20;;;6.90;85.00;;;;;;5052686;28;20201;-59
2022/05/05 01:51:07;;;;;;;4.23;2.30;;;6.90;85.90;;;;;;5052778;28;20231;-58
2022/05/05 01:53:37;;;;;;;6.13;2.20;;;6.80;85.40;;;;;;5052624;28;20201;-58
2022/05/05 01:56:08;;;;;;;3.57;2.07;;;6.80;85.50;;;;;;5052641;28;20682;-57
2022/05/05 01:58:36;;;;;;;5.57;2.30;;;6.80;85.70;;;;;;5052238;28;20233;-57
2022/05/05 02:01:03;;;;;;;3.20;2.20;;;6.80;85.70;;;;;;5052186;28;20221;-58
2022/05/05 02:03:30;;;;;;;6.00;2.30;;;6.70;85.90;;;;;;5052299;28;20233;-57
2022/05/05 02:05:57;;;;;;;4.90;2.80;;;6.70;86.00;;;;;;5052415;28;21021;-56
2022/05/05 02:08:24;;;;;;;3.80;2.43;;;6.70;86.20;;;;;;5052426;28;20656;-58
2022/05/05 02:10:52;;;;;;;5.67;2.27;;;6.70;86.30;;;;;;5052194;28;20660;-58
2022/05/05 02:13:20;;;;;;;4.27;2.17;;;6.70;86.40;;;;;;5051924;28;20205;-56
2022/05/05 02:15:47;;;;;;;4.43;2.23;;;6.70;86.50;;;;;;5051661;28;20559;-57
2022/05/05 02:18:15;;;;;;;6.40;2.50;;;6.70;86.50;;;;;;5052049;28;20308;-58
2022/05/05 02:20:42;;;;;;;4.57;2.47;;;6.70;86.90;;;;;;5051944;28;20213;-58
2022/05/05 02:23:09;;;;;;;3.93;2.40;;;6.60;86.80;;;;;;5052128;28;20209;-58
2022/05/05 02:25:37;;;;;;;5.40;2.90;;;6.60;87.10;;;;;;5052012;28;20205;-56
2022/05/05 02:28:06;;;;;;;4.50;2.60;;;6.50;87.20;;;;;;5052101;28;20687;-56
2022/05/05 02:30:34;;;;;;;4.30;2.67;;;6.50;87.30;;;;;;5051991;28;20205;-54
2022/05/05 02:33:00;;;;;;;6.23;2.70;;;6.50;87.60;;;;;;5052041;28;20225;-56
2022/05/05 02:35:27;;;;;;;4.83;2.30;;;6.50;87.80;;;;;;5051637;28;20255;-57
2022/05/05 02:40:39;;;;;;;5.37;2.80;;;6.40;88.20;;;;;;5051645;28;20191;-57
2022/05/05 02:43:08;;;;;;;6.27;2.30;;;6.40;88.30;;;;;;5051580;28;20209;-58
2022/05/05 02:45:35;;;;;;;5.13;2.50;;;6.40;88.30;;;;;;5052131;28;20305;-57
2022/05/05 02:48:01;;;;;;;6.23;2.87;;;6.40;88.40;;;;;;5051600;28;20567;-59
2022/05/05 02:50:29;;;;;;;6.50;2.70;;;6.40;88.70;;;;;;5052333;28;20564;-60
2022/05/05 02:52:56;;;;;;;4.40;2.50;;;6.40;88.90;;;;;;5052139;28;20635;-59
2022/05/05 02:55:22;;;;;;;8.13;3.03;;;6.40;89.00;;;;;;5051677;28;20201;-59
2022/05/05 02:57:49;;;;;;;4.57;3.10;;;6.40;89.00;;;;;;5051370;28;20275;-60
2022/05/05 03:00:20;;;;;;;8.33;3.30;;;6.40;88.90;;;;;;5052752;28;20236;-59
2022/05/05 03:02:47;;;;;;;6.17;2.43;;;6.40;89.60;;;;;;5051628;28;20741;-58
2022/05/05 03:05:15;;;;;;;5.50;3.00;;;6.50;88.80;;;;;;5051573;28;20281;-58
2022/05/05 03:07:42;;;;;;;3.73;2.60;;;6.40;88.90;;;;;;5051913;28;20648;-61
2022/05/05 03:10:11;;;;;;;7.33;3.00;;;6.40;89.20;;;;;;5051676;28;20678;-58
2022/05/05 03:12:38;;;;;;;4.90;2.90;;;6.50;89.30;;;;;;5051380;28;20201;-59
2022/05/05 03:15:06;;;;;;;4.80;2.80;;;6.40;89.20;;;;;;5051959;28;20205;-63
2022/05/05 03:17:35;;;;;;;6.77;3.10;;;6.40;89.40;;;;;;5051347;28;20221;-58
2022/05/05 03:20:02;;;;;;;7.10;3.30;;;6.50;89.40;;;;;;5051546;28;20596;-60
2022/05/05 03:22:29;;;;;;;7.77;2.83;;;6.50;89.50;;;;;;5051255;28;20224;-60
2022/05/05 03:24:56;;;;;;;5.10;2.73;;;6.50;89.50;;;;;;5051429;28;20267;-59
2022/05/05 03:27:23;;;;;;;5.63;2.67;;;6.50;89.80;;;;;;5053313;28;20269;-59
2022/05/05 03:29:50;;;;;;;4.83;2.80;;;6.60;89.40;;;;;;5055336;28;20614;-59
2022/05/05 03:32:17;;;;;;;4.30;2.60;;;6.70;89.20;;;;;;5055186;28;20718;-58
2022/05/05 03:34:45;;;;;;;6.40;2.90;;;6.70;89.00;;;;;;5055082;28;20208;-59
2022/05/05 03:37:12;;;;;;;8.13;4.23;;;6.70;88.80;;;;;;5055165;28;20221;-59
2022/05/05 03:39:38;;;;;;;10.47;4.83;;;6.80;89.00;;;;;;5055017;28;20205;-58
2022/05/05 03:42:06;;;;;;;4.80;2.67;;;6.80;89.10;;;;;;5055010;28;20202;-58
2022/05/05 03:44:33;;;;;;;5.37;2.60;;;6.80;88.70;;;;;;5055098;28;20209;-57
2022/05/05 03:47:00;;;;;;;9.70;2.70;;;6.90;88.80;;;;;;5054981;28;20206;-59
2022/05/05 03:49:27;;;;;;;4.50;2.63;;;6.90;88.70;;;;;;5054908;28;20205;-59
2022/05/05 03:51:55;;;;;;;4.30;2.67;;;6.90;89.20;;;;;;5054709;28;20209;-58
2022/05/05 03:54:23;;;;;;;3.40;2.50;;;6.90;89.00;;;;;;5054753;28;20303;-58
2022/05/05 03:56:50;;;;;;;6.07;2.53;;;7.00;89.00;;;;;;5054796;28;20562;-59
2022/05/05 03:59:16;;;;;;;4.53;2.80;;;7.00;88.30;;;;;;5054498;28;20222;-59
2022/05/05 04:01:43;;;;;;;5.70;3.10;;;7.10;88.70;;;;;;5054415;28;20213;-60
2022/05/05 04:04:10;;;;;;;4.13;2.63;;;7.00;88.20;;;;;;5054372;28;20244;-59
2022/05/05 04:06:37;;;;;;;5.93;3.20;;;7.00;88.70;;;;;;5054375;28;20260;-59
2022/05/05 04:09:05;;;;;;;5.07;2.70;;;7.00;88.20;;;;;;5054203;28;20205;-60
2022/05/05 04:11:32;;;;;;;4.90;2.60;;;7.10;88.80;;;;;;5054543;28;20240;-58
2022/05/05 04:13:59;;;;;;;2.87;2.07;;;7.10;88.10;;;;;;5054479;28;20558;-59
2022/05/05 04:16:25;;;;;;;5.43;2.73;;;7.10;87.90;;;;;;5053973;28;20243;-59
2022/05/05 04:18:52;;;;;;;6.07;2.67;;;7.20;88.40;;;;;;5054213;28;20221;-60
2022/05/05 04:21:19;;;;;;;5.30;2.60;;;7.20;88.40;;;;;;5054172;28;20201;-59
2022/05/05 04:23:46;;;;;;;5.73;2.37;;;7.30;88.80;;;;;;5054344;28;20582;-59
2022/05/05 04:26:16;;;;;;;5.03;2.10;;;7.40;88.80;;;;;;5054561;28;20537;-60
2022/05/05 04:28:44;;;;;;;3.70;2.50;;;7.50;88.30;;;;;;5054411;28;20209;-59
2022/05/05 04:31:12;;;;;;;4.53;2.20;;;7.50;87.90;;;;;;5053836;28;20236;-59
2022/05/05 04:33:40;;;;;;;3.67;2.30;;;7.50;87.70;;;;;;5054034;28;20208;-60
2022/05/05 04:36:07;;;;;;;3.87;2.37;;;7.50;87.60;;;;;;5054492;28;20202;-58
2022/05/05 04:38:34;;;;;;;4.73;2.63;;;7.50;87.40;;;;;;5053431;28;20218;-59
2022/05/05 04:41:01;;;;;;;4.13;2.27;;;7.60;87.60;;;;;;5054344;28;20202;-59
2022/05/05 04:43:30;;;;;;;5.67;2.57;;;7.60;87.70;;;;;;5053823;28;20201;-58
2022/05/05 04:45:57;;;;;;;14.77;2.83;;;7.60;87.50;;;;;;5053903;28;20652;-59
2022/05/05 04:48:24;;;;;;;6.27;3.07;;;7.70;87.30;;;;;;5053676;28;20205;-60
2022/05/05 04:50:51;;;;;;;5.37;2.67;;;7.80;87.10;;;;;;5053836;28;20205;-60
2022/05/05 04:53:18;;;;;;;4.20;2.40;;;7.80;87.30;;;;;;5053380;28;20399;-58
2022/05/05 04:55:45;;;;;;;6.60;2.67;;;7.90;87.40;;;;;;5054153;28;20566;-59
2022/05/05 04:58:11;;;;;;;14.20;2.90;;;7.90;86.90;;;;;;5053656;28;20232;-61
2022/05/05 05:00:40;;;;;;;4.00;2.60;;;7.90;86.90;;;;;;5053407;28;20207;-58
2022/05/05 05:03:32;;;;;;;15.00;2.13;;;8.00;86.30;;;;;;5053270;28;20727;-59
2022/05/05 05:05:54;;;;;;;2.50;2.00;;;8.00;87.20;;;;;;5053204;28;20240;-59
2022/05/05 05:08:21;;;;;;;3.53;2.30;;;8.10;87.20;;;;;;5053504;28;20206;-61
2022/05/05 05:10:48;;;;;;;3.83;2.40;;;8.10;86.80;;;;;;5053590;28;20292;-59
2022/05/05 05:13:15;;;;;;;4.23;2.30;;;8.20;87.00;;;;;;5053135;28;20206;-59
2022/05/05 05:15:43;;;;;;;3.40;2.20;;;8.30;86.50;;;;;;5053575;28;20291;-61
2022/05/05 05:18:10;;;;;;;3.57;2.40;;;8.30;86.70;;;;;;5053858;28;20320;-60
2022/05/05 05:20:37;;;;;;;3.70;2.37;;;8.40;86.70;;;;;;5053198;28;20213;-58
2022/05/05 05:23:04;;;;;;;7.50;2.20;;;8.50;86.20;;;;;;5053728;28;20320;-59
2022/05/05 05:25:31;;;;;;;3.40;2.20;;;8.60;85.80;;;;;;5053349;28;20297;-60
2022/05/05 05:27:58;;;;;;;6.10;2.40;;;8.70;85.70;;;;;;5053020;28;20206;-62
2022/05/05 05:30:25;;;;;;;26.83;3.60;;;8.80;86.10;;;;;;5053230;28;20233;-59
2022/05/05 05:32:54;;;;;;;7.43;2.17;;;8.90;85.00;;;;;;5053291;28;20300;-60
2022/05/05 05:35:20;;;;;;;4.07;2.20;;;8.90;84.20;;;;;;5053271;28;20206;-62
2022/05/05 05:37:47;;;;;;;5.23;2.60;;;8.90;83.80;;;;;;5053135;28;20221;-59
2022/05/05 05:40:15;;;;;;;2.80;1.93;;;8.90;84.20;;;;;;5052519;28;20212;-62
2022/05/05 05:42:42;;;;;;;3.47;2.10;;;9.00;84.40;;;;;;5052961;28;20209;-60
2022/05/05 05:45:10;;;;;;;7.07;2.47;;;9.00;83.70;;;;;;5052638;28;20205;-60
2022/05/05 05:47:36;;;;;;;4.43;2.80;;;9.10;83.40;;;;;;5052681;28;20209;-60
2022/05/05 05:50:05;;;;;;;8.27;2.30;;;9.10;83.70;;;;;;5051875;28;20209;-59
2022/05/05 05:52:33;;;;;;;4.23;2.43;;;9.10;83.80;;;;;;5052400;28;20213;-59
2022/05/05 05:55:00;;;;;;;3.17;2.10;;;9.10;84.00;;;;;;5052705;28;20205;-60
2022/05/05 05:57:26;;;;;;;7.50;2.20;;;9.20;84.20;;;;;;5052450;28;20213;-60
2022/05/05 05:59:53;;;;;;;5.23;2.23;;;9.30;83.90;;;;;;5052589;28;20233;-59
2022/05/05 06:05:06;;;;;;;19.83;3.10;;;9.50;83.40;;;;;;5052278;28;20197;-60
2022/05/05 06:07:33;;;;;;;3.67;2.30;;;9.50;82.20;;;;;;5051843;28;20421;-59
2022/05/05 06:10:00;;;;;;;5.47;2.10;;;9.60;83.00;;;;;;5052579;28;20205;-59
2022/05/05 06:12:27;;;;;;;3.33;2.20;;;9.60;82.00;;;;;;5051979;28;20220;-59
2022/05/05 06:14:54;;;;;;;7.60;2.20;;;9.70;82.00;;;;;;5051972;28;20201;-60
2022/05/05 06:17:20;;;;;;;5.23;2.33;;;9.70;81.30;;;;;;5052240;28;20209;-60
2022/05/05 06:19:47;;;;;;;5.20;2.20;;;9.80;82.30;;;;;;5051849;28;20225;-60
2022/05/05 06:22:15;;;;;;;3.97;2.33;;;9.90;81.50;;;;;;5051689;28;20210;-59
2022/05/05 06:24:42;;;;;;;4.00;2.30;;;9.90;79.50;;;;;;5051770;28;20209;-59
2022/05/05 06:27:09;;;;;;;3.40;2.20;;;10.00;78.90;;;;;;5052023;28;20668;-60
2022/05/05 06:29:36;;;;;;;4.47;2.23;;;10.00;77.90;;;;;;5051773;28;20296;-59
2022/05/05 06:32:03;;;;;;;2.90;1.87;;;10.00;79.20;;;;;;5051881;28;20221;-60
2022/05/05 06:34:29;;;;;;;5.17;2.20;;;10.10;79.20;;;;;;5052007;28;20546;-59
2022/05/05 06:36:56;;;;;;;3.73;1.90;;;10.20;78.30;;;;;;5051938;28;20570;-59
2022/05/05 06:39:24;;;;;;;5.03;2.30;;;10.30;77.00;;;;;;5051874;28;20221;-61
2022/05/05 06:41:51;;;;;;;12.80;2.40;;;10.30;78.10;;;;;;5052128;28;20205;-59
2022/05/05 06:44:18;;;;;;;9.73;2.30;;;10.40;77.80;;;;;;5051796;28;20215;-60
2022/05/05 06:46:45;;;;;;;3.30;1.90;;;10.50;75.40;;;;;;5051981;28;20209;-59
2022/05/05 06:49:12;;;;;;;4.07;1.80;;;10.50;73.50;;;;;;5051814;28;20678;-59
2022/05/05 06:51:38;;;;;;;2.70;1.87;;;10.50;74.20;;;;;;5051811;28;20209;-59
2022/05/05 06:54:05;;;;;;;4.43;2.13;;;10.50;72.30;;;;;;5051735;28;20205;-59
2022/05/05 06:56:33;;;;;;;6.33;1.93;;;10.50;73.80;;;;;;5051557;28;20793;-60
2022/05/05 06:59:00;;;;;;;3.23;1.97;;;10.50;73.10;;;;;;5051575;28;20225;-61
2022/05/05 07:06:56;;;;;;;16.60;2.93;;;10.70;74.00;;;;;;5055679;28;20192;-59
2022/05/05 07:12:09;;;;;;;2.97;2.10;;;10.70;73.60;;;;;;5055967;28;20558;-58
2022/05/05 07:14:36;;;;;;;3.60;2.10;;;10.70;73.50;;;;;;5055441;28;20201;-60
2022/05/05 07:17:02;;;;;;;2.63;1.97;;;10.70;73.90;;;;;;5055499;28;20206;-61
2022/05/05 07:19:29;;;;;;;10.47;2.40;;;10.80;74.30;;;;;;5055478;28;20234;-60
2022/05/05 07:21:56;;;;;;;19.30;2.83;;;10.80;73.30;;;;;;5055456;28;20571;-61
2022/05/05 07:24:23;;;;;;;4.80;2.20;;;10.80;73.60;;;;;;5055482;28;20295;-58
2022/05/05 07:26:49;;;;;;;3.93;2.00;;;10.80;74.10;;;;;;5055381;28;20201;-59
2022/05/05 07:29:18;;;;;;;3.00;1.80;;;10.90;73.10;;;;;;5055188;28;20201;-59
2022/05/05 07:31:46;;;;;;;3.60;2.00;;;10.90;74.10;;;;;;5055296;28;20750;-59
2022/05/05 07:34:13;;;;;;;20.13;3.33;;;11.00;74.70;;;;;;5055626;28;20213;-58
2022/05/05 07:36:40;;;;;;;4.80;2.50;;;11.10;74.40;;;;;;5055468;28;20232;-59
2022/05/05 07:39:07;;;;;;;7.13;2.13;;;11.10;73.70;;;;;;5055140;28;20225;-59
2022/05/05 07:41:33;;;;;;;21.80;2.63;;;11.10;74.10;;;;;;5054920;28;20211;-61
2022/05/05 07:44:01;;;;;;;7.03;2.30;;;11.20;75.10;;;;;;5054762;28;20213;-60
2022/05/05 07:46:29;;;;;;;3.90;1.90;;;11.30;74.40;;;;;;5054780;28;20240;-60
2022/05/05 07:48:56;;;;;;;4.20;2.37;;;11.40;73.20;;;;;;5054472;28;20204;-61
2022/05/05 07:51:23;;;;;;;2.83;1.70;;;11.40;73.40;;;;;;5055092;28;20208;-60
2022/05/05 07:56:30;;;;;;;3.97;2.10;;;11.40;71.90;;;;;;5053768;28;20330;-58
2022/05/05 07:58:57;;;;;;;6.30;2.73;;;11.50;72.00;;;;;;5054521;28;20576;-60
2022/05/05 08:01:24;;;;;;;6.43;2.50;;;11.50;70.60;;;;;;5054868;28;20206;-60
2022/05/05 08:03:52;;;;;;;5.73;2.00;;;11.50;72.30;;;;;;5054733;28;20229;-59
2022/05/05 08:06:19;;;;;;;5.10;2.10;;;11.50;71.60;;;;;;5054728;28;20213;-60
